Flight Track Log - Related Links

Times and Time Zones

All times are in EDT time to prevent confusion due to time zone crossing. See the UAE757 flight status page for this flight to view local times or setup timezone preferences in your user account.

Time Position Orientation Groundspeed Altitude Reporting Facility
EDT Latitude Longitude Course Direction KTS MPH feet Rate Location/Type
Wed 01:10:00 AM 25.3381 55.1870 298° West  Level Estimated
Wed 01:16:00 AM 25.3564 55.1478 298° West  Level Estimated
Wed 01:17:00 AM 25.4071 55.0396 297° West  Level Estimated
Wed 01:18:00 AM 25.4578 54.9314 297° West  Level Estimated
Wed 01:19:07 AM 25.2520 55.3730 299° West 115 132  Level FlightAware ADS-B
Wed 01:19:26 AM 25.2600 55.3590 302° West 175 201 1,050 Level FlightAware ADS-B
Wed 01:19:47 AM 25.2680 55.3440 301° West 175 201 700 2,045 Climbing FlightAware ADS-B
Wed 01:20:10 AM 25.2770 55.3260 299° West 177 204 1,500 1,500 Climbing FlightAware ADS-B
Wed 01:20:23 AM 25.2830 55.3150 301° West 193 222 1,600 727 Climbing FlightAware ADS-B
Wed 01:20:43 AM 25.2940 55.2970 304° West 219 252 1,900 857 Climbing FlightAware ADS-B
Wed 01:20:51 AM 25.2970 55.2880 290° West 225 259 2,000 1,200 Climbing FlightAware ADS-B
Wed 01:20:58 AM 25.2980 55.2810 279° West 227 261 2,200 1,862 Climbing FlightAware ADS-B
Wed 01:21:20 AM 25.2960 55.2550 265° West 232 267 2,900 2,049 Climbing FlightAware ADS-B
Wed 01:21:39 AM 25.2930 55.2330 261° West 228 262 3,600 2,250 Climbing FlightAware ADS-B
Wed 01:22:00 AM 25.2890 55.2080 260° West 227 261 4,400 2,133 Climbing FlightAware ADS-B
Wed 01:22:24 AM 25.2840 55.1810 258° West 230 265 5,200 1,714 Climbing FlightAware ADS-B
Wed 01:22:35 AM 25.2820 55.1680 260° West 238 274 5,400 909 Climbing FlightAware ADS-B
Wed 01:22:57 AM 25.2770 55.1400 259° West 266 306 5,700 1,297 Climbing FlightAware ADS-B
Wed 01:23:12 AM 25.2740 55.1200 261° West 273 314 6,200 2,118 Climbing FlightAware ADS-B
Wed 01:23:31 AM 25.2700 55.0920 261° West 276 318 6,900 2,341 Climbing FlightAware ADS-B
Wed 01:23:53 AM 25.2650 55.0620 260° West 279 321 7,800 2,341 Climbing FlightAware ADS-B
Wed 01:24:12 AM 25.2610 55.0350 261° West 283 326 8,500 2,333 Climbing FlightAware ADS-B
Wed 01:24:29 AM 25.2570 55.0100 260° West 285 328 9,200 2,108 Climbing FlightAware ADS-B
Wed 01:24:49 AM 25.2520 54.9810 259° West 295 339 9,800 1,418 Climbing FlightAware ADS-B
Wed 01:25:24 AM 25.2450 54.9280 262° West 326 375 10,500 982 Climbing FlightAware ADS-B
Wed 01:25:44 AM 25.2490 54.9020 280° West 345 397 10,700 1,100 Climbing FlightAware ADS-B
Wed 01:26:24 AM 25.2700 54.8220 286° West 379 436 11,600 1,680 Climbing FlightAware ADS-B
Wed 01:26:59 AM 25.2860 54.7580 285° West 386 444 12,800 2,057 Climbing FlightAware ADS-B
Wed 01:27:34 AM 25.3030 54.6900 285° West 395 455 14,000 2,000 Climbing FlightAware ADS-B
Wed 01:28:14 AM 25.3220 54.6090 285° West 405 466 15,300 2,486 Climbing FlightAware ADS-B
Wed 01:28:44 AM 25.3370 54.5500 286° West 392 451 16,900 2,239 Climbing FlightAware ADS-B
Wed 01:29:21 AM 25.3540 54.4820 285° West 401 461 17,800 1,629 Climbing FlightAware ADS-B
Wed 01:29:54 AM 25.3710 54.4120 285° West 407 468 18,800 1,765 Climbing FlightAware ADS-B
Wed 01:30:29 AM 25.3880 54.3400 285° West 411 473 19,800 1,600 Climbing FlightAware ADS-B
Wed 01:31:09 AM 25.4080 54.2590 285° West 418 481 20,800 1,371 Climbing FlightAware ADS-B
Wed 01:31:39 AM 25.4230 54.1970 285° West 427 491 21,400 1,200 Climbing FlightAware ADS-B
Wed 01:32:14 AM 25.4410 54.1220 285° West 435 501 22,100 1,378 Climbing FlightAware ADS-B
Wed 01:32:53 AM 25.4620 54.0350 285° West 438 504 23,100 1,367 Climbing FlightAware ADS-B
Wed 01:33:33 AM 25.4840 53.9460 285° West 447 514 23,900 1,280 Climbing FlightAware ADS-B
Wed 01:34:08 AM 25.5020 53.8690 285° West 448 516 24,700 1,250 Climbing FlightAware ADS-B
Wed 01:34:45 AM 25.5220 53.7860 285° West 450 518 25,400 1,151 Climbing FlightAware ADS-B
Wed 01:35:21 AM 25.5410 53.7090 285° West 452 520 26,100 1,164 Climbing FlightAware ADS-B
Wed 01:35:52 AM 25.5580 53.6380 285° West 455 524 26,700 985 Climbing FlightAware ADS-B
Wed 01:36:28 AM 25.5780 53.5560 285° West 461 531 27,200 930 Climbing FlightAware ADS-B
Wed 01:37:03 AM 25.5970 53.4730 284° West 465 535 27,800 904 Climbing FlightAware ADS-B
Wed 01:37:41 AM 25.6170 53.3880 285° West 468 539 28,300 857 Climbing FlightAware ADS-B
Wed 01:38:13 AM 25.6340 53.3160 285° West 471 542 28,800 806 Climbing FlightAware ADS-B
Wed 01:38:48 AM 25.6540 53.2320 285° West 474 545 29,200 667 Climbing FlightAware ADS-B
Wed 01:39:25 AM 25.6750 53.1420 285° West 481 554 29,600 833 Climbing FlightAware ADS-B
Wed 01:40:00 AM 25.6950 53.0610 285° West 478 550 30,200 971 Climbing FlightAware ADS-B
Wed 01:40:33 AM 25.7210 52.9840 291° West 479 551 30,700 957 Climbing FlightAware ADS-B
Wed 01:41:09 AM 25.7560 52.9060 296° West 480 552 31,300 904 Climbing FlightAware ADS-B
Wed 01:41:46 AM 25.7950 52.8250 298° West 480 552 31,800 783 Climbing FlightAware ADS-B
Wed 01:42:18 AM 25.8280 52.7540 297° West 483 556 32,200 896 Climbing FlightAware ADS-B
Wed 01:42:53 AM 25.8640 52.6780 298° West 482 555 32,800 1,000 Climbing FlightAware ADS-B
Wed 01:43:30 AM 25.9020 52.5980 298° West 482 555 33,400 1,029 Climbing FlightAware ADS-B
Wed 01:44:03 AM 25.9350 52.5250 297° West 481 554 34,000 1,043 Climbing FlightAware ADS-B
Wed 01:44:39 AM 25.9680 52.4470 295° West 480 552 34,600 1,099 Climbing FlightAware ADS-B
Wed 01:45:14 AM 26.0040 52.3660 296° West 478 550 35,300 1,083 Climbing FlightAware ADS-B
Wed 01:45:51 AM 26.0400 52.2840 296° West 475 547 35,900 1,000 Climbing FlightAware ADS-B
Wed 01:46:32 AM 26.0800 52.1950 297° West 474 545 36,600 935 Climbing FlightAware ADS-B
Wed 01:47:08 AM 26.1140 52.1190 296° West 472 543 37,100 1,043 Climbing FlightAware ADS-B
Wed 01:47:41 AM 26.1470 52.0450 296° West 467 537 37,800 794 Climbing FlightAware ADS-B
Wed 01:48:16 AM 26.1800 51.9720 297° West 470 541 38,000 169 Climbing FlightAware ADS-B
Wed 01:48:52 AM 26.2150 51.8920 296° West 470 541 38,000  Level FlightAware ADS-B
Wed 01:49:25 AM 26.2450 51.8240 296° West 469 540 38,000  Level FlightAware ADS-B
Wed 01:50:01 AM 26.2800 51.7460 297° West 467 537 38,000  Level FlightAware ADS-B
Wed 01:50:36 AM 26.3150 51.6670 296° West 465 535 38,000  Level FlightAware ADS-B
Wed 01:51:13 AM 26.3500 51.5900 297° West 464 534 38,000  Level FlightAware ADS-B
Wed 01:51:44 AM 26.3790 51.5220 295° West 463 533 38,000  Level FlightAware ADS-B
Wed 01:52:21 AM 26.4060 51.4380 290° West 464 534 38,000  Level FlightAware ADS-B
Wed 01:52:52 AM 26.4270 51.3730 290° West 464 534 38,000  Level FlightAware ADS-B
Wed 01:53:30 AM 26.4540 51.2870 289° West 465 535 38,000  Level FlightAware ADS-B
Wed 01:54:06 AM 26.4810 51.2030 290° West 466 536 38,000  Level FlightAware ADS-B
Wed 01:54:51 AM 26.5140 51.1020 290° West 465 535 38,000  Level FlightAware ADS-B
Wed 01:55:21 AM 26.5340 51.0370 289° West 466 536 38,000  Level FlightAware ADS-B
Wed 01:56:02 AM 26.5640 50.9410 289° West 465 535 38,000  Level FlightAware ADS-B
Wed 01:56:32 AM 26.5860 50.8720 290° West 465 535 38,000  Level FlightAware ADS-B
Wed 01:57:08 AM 26.6110 50.7930 290° West 464 534 38,000  Level FlightAware ADS-B
Wed 01:57:42 AM 26.6360 50.7140 290° West 464 534 38,000  Level FlightAware ADS-B
Wed 01:58:18 AM 26.6610 50.6320 289° West 466 536 38,000  Level FlightAware ADS-B
Wed 01:58:42 AM 26.6750 50.5820 287° West 463 533 38,000  Level FlightAware ADS-B
Wed 01:59:32 AM 26.7010 50.4810 286° West 463 533 38,000  Level FlightAware ADS-B
Wed 02:00:12 AM 26.7350 50.3720 289° West 461 531 38,000  Level FlightAware ADS-B
Wed 02:00:45 AM 26.7510 50.3030 285° West 463 533 38,000  Level FlightAware ADS-B
Wed 02:01:18 AM 26.7550 50.2160 273° West 460 529 38,000  Level FlightAware ADS-B
Wed 02:02:14 AM 26.7540 50.0940 270° West 460 529 38,000  Level FlightAware ADS-B
Wed 02:02:50 AM 26.7540 50.0210 270° West 460 529 38,000  Level FlightAware ADS-B
Wed 02:03:26 AM 26.7540 49.9480 270° West 460 529 38,000  Level FlightAware ADS-B
Wed 02:04:02 AM 26.7540 49.8750 270° West 460 529 38,000  Level FlightAware ADS-B
Wed 02:04:39 AM 26.7540 49.8000 270° West 460 529 38,000  Level FlightAware ADS-B
Wed 02:05:15 AM 26.7540 49.7270 270° West 460 529 38,000  Level FlightAware ADS-B
Wed 02:05:51 AM 26.7540 49.6540 270° West 460 529 38,000  Level FlightAware ADS-B
Wed 02:06:02 AM 26.7350 49.5400 259° West 38,000  Level FlightAware ADS-B
Wed 02:06:32 AM 26.7330 49.4790 268° West 459 528 38,000  Level FlightAware ADS-B
Wed 02:07:07 AM 26.7300 49.3870 268° West 460 529 38,000  Level FlightAware ADS-B
Wed 02:07:47 AM 26.7270 49.2960 268° West 459 528 38,000  Level FlightAware ADS-B
Wed 02:08:17 AM 26.7250 49.2190 268° West 459 528 38,000  Level FlightAware ADS-B
Wed 02:08:54 AM 26.7210 49.1310 267° West 460 529 38,000  Level FlightAware ADS-B
Wed 02:09:29 AM 26.7180 49.0460 268° West 460 529 38,000  Level FlightAware ADS-B
Wed 02:10:04 AM 26.7160 48.9670 268° West 460 529 38,000  Level FlightAware ADS-B
Wed 02:10:43 AM 26.7120 48.8700 267° West 460 529 38,000  Level FlightAware ADS-B
Wed 02:11:20 AM 26.7090 48.7860 268° West 461 531 38,000  Level FlightAware ADS-B
Wed 02:12:02 AM 26.7050 48.6890 267° West 461 531 38,000  Level FlightAware ADS-B
Wed 02:12:40 AM 26.7010 48.5920 267° West 460 529 38,000  Level FlightAware ADS-B
Wed 02:13:14 AM 26.6980 48.5130 268° West 459 528 38,000  Level FlightAware ADS-B
Wed 02:13:45 AM 26.6950 48.4410 267° West 458 527 38,000  Level FlightAware ADS-B
Wed 02:14:20 AM 26.6910 48.3580 267° West 458 527 38,000  Level FlightAware ADS-B
Wed 02:14:56 AM 26.6880 48.2730 268° West 457 526 38,000  Level FlightAware ADS-B
Wed 02:15:31 AM 26.6840 48.1900 267° West 458 527 38,000  Level FlightAware ADS-B
Wed 02:16:08 AM 26.6800 48.1060 267° West 458 527 38,000  Level FlightAware ADS-B
Wed 02:16:42 AM 26.6770 48.0200 268° West 459 528 38,000  Level FlightAware ADS-B
Wed 02:17:17 AM 26.6800 47.9380 272° West 461 531 38,000  Level FlightAware ADS-B
Wed 02:17:52 AM 26.6910 47.8550 278° West 463 533 38,000  Level FlightAware ADS-B
Wed 02:18:28 AM 26.7050 47.7700 280° West 463 533 38,000  Level FlightAware ADS-B
Wed 02:19:04 AM 26.7180 47.6850 280° West 462 532 38,000  Level FlightAware ADS-B
Wed 02:19:40 AM 26.7310 47.6050 280° West 461 531 38,000  Level FlightAware ADS-B
Wed 02:20:15 AM 26.7440 47.5230 280° West 460 529 38,000  Level FlightAware ADS-B
Wed 02:20:45 AM 26.7550 47.4540 280° West 460 529 38,000  Level FlightAware ADS-B
Wed 02:21:21 AM 26.7690 47.3650 280° West 458 527 38,000  Level FlightAware ADS-B
Wed 02:21:56 AM 26.7810 47.2840 279° West 458 527 38,000  Level FlightAware ADS-B
Wed 02:22:31 AM 26.7940 47.2020 280° West 458 527 38,000  Level FlightAware ADS-B
Wed 02:23:06 AM 26.8060 47.1210 279° West 459 528 38,000  Level FlightAware ADS-B
Wed 02:23:46 AM 26.8210 47.0250 280° West 460 529 38,000  Level FlightAware ADS-B
Wed 02:24:16 AM 26.8320 46.9560 280° West 460 529 38,000  Level FlightAware ADS-B
Wed 02:24:51 AM 26.8440 46.8730 279° West 460 529 38,000  Level FlightAware ADS-B
Wed 02:25:31 AM 26.8590 46.7790 280° West 461 531 38,000  Level FlightAware ADS-B
Wed 02:26:01 AM 26.8690 46.7080 279° West 461 531 38,000  Level FlightAware ADS-B
Wed 02:26:36 AM 26.8820 46.6260 280° West 461 531 38,000  Level FlightAware ADS-B
Wed 02:27:11 AM 26.8940 46.5450 279° West 460 529 38,000  Level FlightAware ADS-B
Wed 02:27:46 AM 26.9060 46.4650 280° West 460 529 38,000  Level FlightAware ADS-B
Wed 02:28:21 AM 26.9180 46.3800 279° West 459 528 38,000  Level FlightAware ADS-B
Wed 02:29:01 AM 26.9330 46.2850 280° West 458 527 38,000  Level FlightAware ADS-B
Wed 02:29:32 AM 26.9430 46.2130 279° West 458 527 38,000  Level FlightAware ADS-B
Wed 02:30:07 AM 26.9550 46.1310 279° West 458 527 38,000  Level FlightAware ADS-B
Wed 02:30:42 AM 26.9670 46.0490 279° West 457 526 38,000  Level FlightAware ADS-B
Wed 02:31:17 AM 26.9790 45.9650 279° West 457 526 38,000  Level FlightAware ADS-B
Wed 02:31:52 AM 26.9910 45.8840 279° West 457 526 38,000  Level FlightAware ADS-B
Wed 02:32:27 AM 27.0030 45.8020 279° West 455 524 38,000  Level FlightAware ADS-B
Wed 02:33:02 AM 27.0140 45.7230 279° West 455 524 38,000  Level FlightAware ADS-B
Wed 02:33:37 AM 27.0270 45.6380 280° West 454 522 38,000  Level FlightAware ADS-B
Wed 02:34:15 AM 27.0370 45.5630 279° West 453 521 38,000  Level FlightAware ADS-B
Wed 02:34:47 AM 27.0490 45.4790 279° West 451 519 38,000  Level FlightAware ADS-B
Wed 02:35:22 AM 27.0600 45.3990 279° West 450 518 38,000  Level FlightAware ADS-B
Wed 02:35:57 AM 27.0690 45.3180 277° West 452 520 38,000  Level FlightAware ADS-B
Wed 02:36:45 AM 27.0790 45.2140 276° West 452 520 38,000  Level FlightAware ADS-B
Wed 02:37:21 AM 27.0860 45.1420 276° West 452 520 38,000  Level FlightAware ADS-B
Wed 02:37:57 AM 27.0930 45.0710 276° West 452 520 38,000  Level FlightAware ADS-B
Wed 02:38:33 AM 27.0990 44.9990 275° West 452 520 38,000  Level FlightAware ADS-B
Wed 02:39:09 AM 27.1060 44.9280 276° West 452 520 38,000  Level FlightAware ADS-B
Wed 02:39:45 AM 27.1130 44.8560 276° West 452 520 38,000  Level FlightAware ADS-B
Wed 02:40:21 AM 27.1190 44.7850 275° West 452 520 38,000  Level FlightAware ADS-B
Wed 02:40:57 AM 27.1260 44.7130 276° West 452 520 38,000  Level FlightAware ADS-B
Wed 02:41:33 AM 27.1330 44.6420 276° West 452 520 38,000  Level FlightAware ADS-B
Wed 02:42:09 AM 27.1390 44.5700 275° West 452 520 38,000  Level FlightAware ADS-B
Wed 02:42:45 AM 27.1460 44.4990 276° West 452 520 38,000  Level FlightAware ADS-B
Wed 02:43:22 AM 27.1530 44.4250 276° West 452 520 38,000  Level FlightAware ADS-B
Wed 02:43:58 AM 27.1600 44.3540 276° West 452 520 38,000  Level FlightAware ADS-B
Wed 02:44:35 AM 27.1660 44.2800 275° West 452 520 38,000  Level FlightAware ADS-B
Wed 02:45:12 AM 27.1730 44.2070 276° West 452 520 38,000  Level FlightAware ADS-B
Wed 02:45:49 AM 27.1800 44.1330 276° West 452 520 38,000 37 Level FlightAware ADS-B
Wed 02:48:00 AM 27.2779 43.9056 296° West  Level Estimated
Wed 02:49:00 AM 27.3226 43.8013 296° West  Level Estimated
Wed 02:50:00 AM 27.3672 43.6969 296° West  Level Estimated
Wed 02:51:00 AM 27.4117 43.5924 296° West  Level Estimated
Wed 02:52:00 AM 27.4562 43.4878 296° West  Level Estimated
Wed 02:53:00 AM 27.5006 43.3832 296° West  Level Estimated
Wed 02:54:00 AM 27.5449 43.2785 296° West  Level Estimated
Wed 02:55:00 AM 27.5891 43.1737 295° West  Level Estimated
Wed 02:56:00 AM 27.6333 43.0688 295° West  Level Estimated
Wed 02:57:00 AM 27.6773 42.9638 295° West  Level Estimated
Wed 02:58:00 AM 27.7213 42.8587 295° West  Level Estimated
Wed 02:59:00 AM 27.7652 42.7536 295° West  Level Estimated
Wed 03:00:00 AM 27.8091 42.6484 295° West  Level Estimated
Wed 03:01:00 AM 27.8528 42.5430 295° West  Level Estimated
Wed 03:02:00 AM 27.8965 42.4376 295° West  Level Estimated
Wed 03:03:00 AM 27.9401 42.3321 295° West  Level Estimated
Wed 03:04:00 AM 27.9836 42.2266 295° West  Level Estimated
Wed 03:05:00 AM 28.0271 42.1209 295° West  Level Estimated
Wed 03:06:00 AM 28.0704 42.0152 295° West  Level Estimated
Wed 03:07:00 AM 28.1137 41.9094 295° West  Level Estimated
Wed 03:08:00 AM 28.1569 41.8034 295° West  Level Estimated
Wed 03:09:00 AM 28.2000 41.6974 295° West  Level Estimated
Wed 03:10:00 AM 28.2430 41.5914 295° West  Level Estimated
Wed 03:11:00 AM 28.2860 41.4852 295° West  Level Estimated
Wed 03:12:00 AM 28.3288 41.3789 295° West  Level Estimated
Wed 03:13:00 AM 28.3716 41.2726 295° West  Level Estimated
Wed 03:14:00 AM 28.4143 41.1662 295° West  Level Estimated
Wed 03:15:00 AM 28.4569 41.0597 294° West  Level Estimated
Wed 03:16:00 AM 28.4995 40.9531 294° West  Level Estimated
Wed 03:17:00 AM 28.5419 40.8464 294° West  Level Estimated
Wed 03:18:00 AM 28.5843 40.7396 294° West  Level Estimated
Wed 03:19:00 AM 28.6266 40.6328 294° West  Level Estimated
Wed 03:20:00 AM 28.6688 40.5258 294° West  Level Estimated
Wed 03:21:00 AM 28.7109 40.4188 294° West  Level Estimated
Wed 03:22:00 AM 28.7529 40.3117 294° West  Level Estimated
Wed 03:23:00 AM 28.7948 40.2045 294° West  Level Estimated
Wed 03:24:00 AM 28.8367 40.0972 294° West  Level Estimated
Wed 03:25:00 AM 28.8785 39.9898 294° West  Level Estimated
Wed 03:26:00 AM 28.9202 39.8824 294° West  Level Estimated
Wed 03:27:00 AM 28.9618 39.7748 294° West  Level Estimated
Wed 03:28:00 AM 29.0033 39.6672 294° West  Level Estimated
Wed 03:29:00 AM 29.0447 39.5594 294° West  Level Estimated
Wed 03:30:00 AM 29.0861 39.4516 294° West  Level Estimated
Wed 03:31:00 AM 29.1273 39.3438 294° West  Level Estimated
Wed 03:32:00 AM 29.1685 39.2358 294° West  Level Estimated
Wed 03:33:00 AM 29.2096 39.1277 294° West  Level Estimated
Wed 03:34:00 AM 29.2506 39.0196 294° West  Level Estimated
Wed 03:35:00 AM 29.2915 38.9113 293° West  Level Estimated
Wed 03:36:00 AM 29.3324 38.8030 293° West  Level Estimated
Wed 03:37:00 AM 29.3731 38.6946 293° West  Level Estimated
Wed 03:38:00 AM 29.4137 38.5861 293° West  Level Estimated
Wed 03:39:00 AM 29.4543 38.4775 293° West  Level Estimated
Wed 03:39:55 AM 29.0950 37.2610 293° West 424 488 40,000  Level FlightAware ADS-B
Wed 03:40:00 AM 29.4948 38.3689 293° West  Level Estimated
Wed 03:40:31 AM 29.0930 37.1930 268° West 424 488 40,000  Level FlightAware ADS-B
Wed 03:41:07 AM 29.0910 37.1240 268° West 424 488 40,000  Level FlightAware ADS-B
Wed 03:41:43 AM 29.0890 37.0550 268° West 424 488 40,000  Level FlightAware ADS-B
Wed 03:42:19 AM 29.0860 36.9870 267° West 424 488 40,000  Level FlightAware ADS-B
Wed 03:42:55 AM 29.0840 36.9180 268° West 424 488 40,000  Level FlightAware ADS-B
Wed 03:43:31 AM 29.0820 36.8490 268° West 424 488 40,000  Level FlightAware ADS-B
Wed 03:44:07 AM 29.0800 36.7810 268° West 424 488 40,000  Level FlightAware ADS-B
Wed 03:44:43 AM 29.0780 36.7120 268° West 424 488 40,000  Level FlightAware ADS-B
Wed 03:45:19 AM 29.0760 36.6430 268° West 424 488 40,000  Level FlightAware ADS-B
Wed 03:45:55 AM 29.0740 36.5750 268° West 424 488 40,000  Level FlightAware ADS-B
Wed 03:46:31 AM 29.0720 36.5060 268° West 424 488 40,000  Level FlightAware ADS-B
Wed 03:47:07 AM 29.0700 36.4380 268° West 424 488 40,000  Level FlightAware ADS-B
Wed 03:47:41 AM 29.0740 36.2110 271° West 426 490 40,000  Level FlightAware ADS-B
Wed 03:48:23 AM 29.0720 36.1300 268° West 426 490 40,000  Level FlightAware ADS-B
Wed 03:48:59 AM 29.0700 36.0620 268° West 426 490 40,000  Level FlightAware ADS-B
Wed 03:49:33 AM 29.0680 35.9960 268° West 426 490 40,000  Level FlightAware ADS-B
Wed 03:50:09 AM 29.0650 35.9270 267° West 426 490 40,000  Level FlightAware ADS-B
Wed 03:50:45 AM 29.0630 35.8590 268° West 426 490 40,000  Level FlightAware ADS-B
Wed 03:51:21 AM 29.0610 35.7900 268° West 426 490 40,000  Level FlightAware ADS-B
Wed 03:51:57 AM 29.0590 35.7210 268° West 426 490 40,000  Level FlightAware ADS-B
Wed 03:52:34 AM 29.0570 35.6500 268° West 426 490 40,000  Level FlightAware ADS-B
Wed 03:53:10 AM 29.0550 35.5810 268° West 426 490 40,000  Level FlightAware ADS-B
Wed 03:53:46 AM 29.0530 35.5120 268° West 426 490 40,000  Level FlightAware ADS-B
Wed 03:54:22 AM 29.0510 35.4430 268° West 426 490 40,000  Level FlightAware ADS-B
Wed 03:54:58 AM 29.0480 35.3740 267° West 426 490 40,000  Level FlightAware ADS-B
Wed 03:55:34 AM 29.0460 35.3050 268° West 426 490 40,000  Level FlightAware ADS-B
Wed 03:56:10 AM 29.0440 35.2360 268° West 426 490 40,000  Level FlightAware ADS-B
Wed 03:56:46 AM 29.0420 35.1670 268° West 426 490 40,000  Level FlightAware ADS-B
Wed 03:57:22 AM 29.0400 35.0980 268° West 426 490 40,000  Level FlightAware ADS-B
Wed 03:59:00 AM 29.1092 34.9228 294° West  Level Estimated
Wed 04:00:00 AM 29.1515 34.8154 294° West  Level Estimated
Wed 04:01:00 AM 29.1937 34.7079 294° West  Level Estimated
Wed 04:02:00 AM 29.2358 34.6003 294° West  Level Estimated
Wed 04:03:00 AM 29.2778 34.4926 294° West  Level Estimated
Wed 04:04:00 AM 29.3198 34.3849 294° West  Level Estimated
Wed 04:05:00 AM 29.3616 34.2771 294° West  Level Estimated
Wed 04:06:00 AM 29.4034 34.1691 294° West  Level Estimated
Wed 04:07:00 AM 29.4450 34.0611 294° West  Level Estimated
Wed 04:08:00 AM 29.4866 33.9530 294° West  Level Estimated
Wed 04:09:00 AM 29.5281 33.8448 294° West  Level Estimated
Wed 04:10:00 AM 29.5695 33.7365 294° West  Level Estimated
Wed 04:11:00 AM 29.6109 33.6281 294° West  Level Estimated
Wed 04:12:00 AM 29.6521 33.5197 294° West  Level Estimated
Wed 04:13:00 AM 29.6933 33.4111 294° West  Level Estimated
Wed 04:14:00 AM 29.7343 33.3025 294° West  Level Estimated
Wed 04:15:00 AM 29.7753 33.1938 293° West  Level Estimated
Wed 04:16:00 AM 29.8162 33.0849 293° West  Level Estimated
Wed 04:17:00 AM 29.8570 32.9760 293° West  Level Estimated
Wed 04:18:00 AM 29.8977 32.8670 293° West  Level Estimated
Wed 04:19:00 AM 29.9383 32.7580 293° West  Level Estimated
Wed 04:20:00 AM 29.9788 32.6488 293° West  Level Estimated
Wed 04:21:00 AM 30.0192 32.5395 293° West  Level Estimated
Wed 04:22:00 AM 30.0596 32.4302 293° West  Level Estimated
Wed 04:23:00 AM 30.0998 32.3207 293° West  Level Estimated
Wed 04:24:00 AM 30.1400 32.2112 293° West  Level Estimated
Wed 04:25:00 AM 30.1800 32.1016 293° West  Level Estimated
Wed 04:26:00 AM 30.2200 31.9919 293° West  Level Estimated
Wed 04:27:00 AM 30.2599 31.8821 293° West  Level Estimated
Wed 04:28:00 AM 30.2997 31.7722 293° West  Level Estimated
Wed 04:29:00 AM 30.3394 31.6622 293° West  Level Estimated
Wed 04:30:00 AM 30.3790 31.5522 293° West  Level Estimated
Wed 04:31:00 AM 30.4185 31.4420 293° West  Level Estimated
Wed 04:32:00 AM 30.4580 31.3318 293° West  Level Estimated
Wed 04:33:00 AM 30.4973 31.2214 293° West  Level Estimated
Wed 04:34:00 AM 30.5365 31.1110 292° West  Level Estimated
Wed 04:35:00 AM 30.5757 31.0005 292° West  Level Estimated
Wed 04:36:00 AM 30.6147 30.8899 292° West  Level Estimated
Wed 04:37:00 AM 30.6537 30.7792 292° West  Level Estimated
Wed 04:38:00 AM 30.6926 30.6684 292° West  Level Estimated
Wed 04:39:00 AM 30.7313 30.5576 292° West  Level Estimated
Wed 04:40:00 AM 30.7700 30.4466 292° West  Level Estimated
Wed 04:41:00 AM 30.8086 30.3356 292° West  Level Estimated
Wed 04:41:35 AM 31.3430 29.6970 292° West 424 488 40,000  Level FlightAware ADS-B
Wed 04:42:12 AM 31.3830 29.6320 306° West 423 487 40,000  Level FlightAware ADS-B
Wed 04:42:46 AM 31.4230 29.5650 305° West 424 488 40,000  Level FlightAware ADS-B
Wed 04:43:27 AM 31.4700 29.4890 306° West 424 488 40,000  Level FlightAware ADS-B
Wed 04:44:00 AM 31.5100 29.4230 305° West 426 490 40,000  Level FlightAware ADS-B
Wed 04:44:34 AM 31.5460 29.3640 306° West 427 491 40,000  Level FlightAware ADS-B
Wed 04:45:09 AM 31.5870 29.2960 305° West 422 486 40,000  Level FlightAware ADS-B
Wed 04:47:00 AM 31.6535 29.0865 290° West  Level Estimated
Wed 04:47:09 AM 31.7290 29.0600 290° West 40,000  Level FlightAware ADS-B
Wed 04:47:43 AM 31.7600 29.0060 304° West 430 495 40,000  Level FlightAware ADS-B
Wed 04:48:34 AM 31.8280 28.8950 306° West 429 494 40,000  Level FlightAware ADS-B
Wed 04:49:16 AM 31.8690 28.8250 305° West 429 494 40,000  Level FlightAware ADS-B
Wed 04:49:53 AM 31.9040 28.7640 304° West 429 494 40,000  Level FlightAware ADS-B
Wed 04:50:29 AM 31.9380 28.7040 304° West 429 494 40,000  Level FlightAware ADS-B
Wed 04:51:05 AM 31.9720 28.6450 304° West 429 494 40,000  Level FlightAware ADS-B
Wed 04:51:41 AM 32.0060 28.5860 304° West 429 494 40,000  Level FlightAware ADS-B
Wed 04:52:18 AM 32.0400 28.5250 303° West 429 494 40,000  Level FlightAware ADS-B
Wed 04:52:54 AM 32.0740 28.4650 304° West 429 494 40,000  Level FlightAware ADS-B
Wed 04:53:30 AM 32.1080 28.4060 304° West 429 494 40,000  Level FlightAware ADS-B
Wed 04:54:05 AM 32.2110 28.2560 309° West 40,000  Level FlightAware ADS-B
Wed 04:54:40 AM 32.2490 28.1960 307° West 436 502 40,000  Level FlightAware ADS-B
Wed 04:55:18 AM 32.2900 28.1270 305° West 436 502 40,000  Level FlightAware ADS-B
Wed 04:55:56 AM 32.3410 28.0450 306° West 429 494 40,000  Level FlightAware ADS-B
Wed 04:56:50 AM 32.3950 27.9530 305° West 429 494 40,000  Level FlightAware ADS-B
Wed 04:57:26 AM 32.4290 27.8940 304° West 429 494 40,000  Level FlightAware ADS-B
Wed 04:58:02 AM 32.4630 27.8340 304° West 429 494 40,000  Level FlightAware ADS-B
Wed 04:58:38 AM 32.4970 27.7740 304° West 429 494 40,000  Level FlightAware ADS-B
Wed 04:59:14 AM 32.5310 27.7150 304° West 429 494 40,000  Level FlightAware ADS-B
Wed 04:59:50 AM 32.5650 27.6550 304° West 429 494 40,000  Level FlightAware ADS-B
Wed 05:00:38 AM 32.6100 27.5750 304° West 429 494 40,000  Level FlightAware ADS-B
Wed 05:01:14 AM 32.6440 27.5150 304° West 429 494 40,000  Level FlightAware ADS-B
Wed 05:01:50 AM 32.6780 27.4550 304° West 429 494 40,000  Level FlightAware ADS-B
Wed 05:02:26 AM 32.7120 27.3960 304° West 429 494 40,000  Level FlightAware ADS-B
Wed 05:03:02 AM 32.7460 27.3360 304° West 429 494 40,000  Level FlightAware ADS-B
Wed 05:03:38 AM 32.7800 27.2760 304° West 429 494 40,000  Level FlightAware ADS-B
Wed 05:04:15 AM 32.8150 27.2140 304° West 429 494 40,000  Level FlightAware ADS-B
Wed 05:04:51 AM 32.8490 27.1540 304° West 429 494 40,000  Level FlightAware ADS-B
Wed 05:05:28 AM 32.8840 27.0930 304° West 429 494 40,000  Level FlightAware ADS-B
Wed 05:06:04 AM 32.9180 27.0330 304° West 429 494 40,000  Level FlightAware ADS-B
Wed 05:08:00 AM 32.9781 26.8070 288° West  Level Estimated
Wed 05:09:00 AM 33.0089 26.6900 288° West  Level Estimated
Wed 05:10:00 AM 33.0397 26.5729 287° West  Level Estimated
Wed 05:11:00 AM 33.0704 26.4557 287° West  Level Estimated
Wed 05:12:00 AM 33.1010 26.3384 287° West  Level Estimated
Wed 05:13:00 AM 33.1315 26.2211 287° West  Level Estimated
Wed 05:14:00 AM 33.1618 26.1036 287° West  Level Estimated
Wed 05:15:00 AM 33.1920 25.9861 287° West  Level Estimated
Wed 05:16:00 AM 33.2222 25.8685 287° West  Level Estimated
Wed 05:17:00 AM 33.2522 25.7509 287° West  Level Estimated
Wed 05:18:00 AM 33.2821 25.6331 287° West  Level Estimated
Wed 05:19:00 AM 33.3119 25.5153 287° West  Level Estimated
Wed 05:20:00 AM 33.3416 25.3974 287° West  Level Estimated
Wed 05:21:00 AM 33.3712 25.2794 287° West  Level Estimated
Wed 05:22:00 AM 33.4006 25.1613 287° West  Level Estimated
Wed 05:22:49 AM 34.1090 24.7860 287° West 438 504 40,000  Level FlightAware ADS-B
Wed 05:23:22 AM 34.1270 24.7240 289° West 439 505 40,000  Level FlightAware ADS-B
Wed 05:23:58 AM 34.1470 24.6530 289° West 439 505 40,000  Level FlightAware ADS-B
Wed 05:24:35 AM 34.1680 24.5800 289° West 439 505 40,000  Level FlightAware ADS-B
Wed 05:25:11 AM 34.2060 24.4610 291° West 438 504 40,000  Level FlightAware ADS-B
Wed 05:25:45 AM 34.2270 24.3900 290° West 438 504 40,000  Level FlightAware ADS-B
Wed 05:26:19 AM 34.2510 24.3080 290° West 438 504 40,000  Level FlightAware ADS-B
Wed 05:26:55 AM 34.2730 24.2310 289° West 436 502 40,000  Level FlightAware ADS-B
Wed 05:27:32 AM 34.2940 24.1590 289° West 436 502 40,000  Level FlightAware ADS-B
Wed 05:28:08 AM 34.3140 24.0880 289° West 436 502 40,000  Level FlightAware ADS-B
Wed 05:28:41 AM 34.3430 23.9900 290° West 750 863 40,000  Level FlightAware ADS-B
Wed 05:30:24 AM 34.4130 23.7480 289° West 427 491 40,000  Level FlightAware ADS-B
Wed 05:30:56 AM 34.4350 23.6720 289° West 427 491 40,000  Level FlightAware ADS-B
Wed 05:31:30 AM 34.4570 23.5950 289° West 429 494 40,000  Level FlightAware ADS-B
Wed 05:32:05 AM 34.4770 23.5220 288° West 429 494 40,000  Level FlightAware ADS-B
Wed 05:32:51 AM 34.5010 23.4330 288° West 429 494 40,000  Level FlightAware ADS-B
Wed 05:33:27 AM 34.5200 23.3630 288° West 429 494 40,000  Level FlightAware ADS-B
Wed 05:34:04 AM 34.5390 23.2910 288° West 429 494 40,000  Level FlightAware ADS-B
Wed 05:34:40 AM 34.5580 23.2210 288° West 429 494 40,000  Level FlightAware ADS-B
Wed 05:35:16 AM 34.5770 23.1500 288° West 429 494 40,000  Level FlightAware ADS-B
Wed 05:35:52 AM 34.5950 23.0800 287° West 429 494 40,000  Level FlightAware ADS-B
Wed 05:36:28 AM 34.6140 23.0100 288° West 429 494 40,000  Level FlightAware ADS-B
Wed 05:37:04 AM 34.6330 22.9400 288° West 429 494 40,000  Level FlightAware ADS-B
Wed 05:37:40 AM 34.6520 22.8700 288° West 429 494 40,000  Level FlightAware ADS-B
Wed 05:38:11 AM 34.6880 22.6780 283° West 422 486 40,000  Level FlightAware ADS-B
Wed 05:39:00 AM 34.7110 22.5750 285° West 424 488 40,000  Level FlightAware ADS-B
Wed 05:39:37 AM 34.7270 22.5020 285° West 424 488 40,000  Level FlightAware ADS-B
Wed 05:40:13 AM 34.7420 22.4320 285° West 424 488 40,000  Level FlightAware ADS-B
Wed 05:40:49 AM 34.7580 22.3610 285° West 424 488 40,000  Level FlightAware ADS-B
Wed 05:41:26 AM 34.7740 22.2890 285° West 424 488 40,000  Level FlightAware ADS-B
Wed 05:42:02 AM 34.7890 22.2180 284° West 424 488 40,000  Level FlightAware ADS-B
Wed 05:42:38 AM 34.8050 22.1470 285° West 424 488 40,000  Level FlightAware ADS-B
Wed 05:43:14 AM 34.8200 22.0770 285° West 424 488 40,000  Level FlightAware ADS-B
Wed 05:43:50 AM 34.8360 22.0060 285° West 424 488 40,000  Level FlightAware ADS-B
Wed 05:44:27 AM 34.8520 21.9330 285° West 424 488 40,000  Level FlightAware ADS-B
Wed 05:45:04 AM 34.8680 21.8610 285° West 424 488 40,000  Level FlightAware ADS-B
Wed 05:45:40 AM 34.8830 21.7900 284° West 424 488 40,000  Level FlightAware ADS-B
Wed 05:46:18 AM 34.9000 21.7160 286° West 424 488 40,000  Level FlightAware ADS-B
Wed 05:46:54 AM 34.9150 21.6450 284° West 424 488 40,000  Level FlightAware ADS-B
Wed 05:47:31 AM 34.9310 21.5720 285° West 424 488 40,000  Level FlightAware ADS-B
Wed 05:48:07 AM 34.9470 21.5010 285° West 424 488 40,000  Level FlightAware ADS-B
Wed 05:50:00 AM 34.9882 21.2638 282° West  Level Estimated
Wed 05:51:00 AM 35.0099 21.1377 282° West  Level Estimated
Wed 05:52:00 AM 35.0314 21.0116 282° West  Level Estimated
Wed 05:53:00 AM 35.0529 20.8854 282° West  Level Estimated
Wed 05:54:00 AM 35.0742 20.7591 282° West  Level Estimated
Wed 05:55:00 AM 35.0953 20.6328 282° West  Level Estimated
Wed 05:56:00 AM 35.1164 20.5064 282° West  Level Estimated
Wed 05:57:00 AM 35.1373 20.3799 281° West  Level Estimated
Wed 05:57:07 AM 35.2400 20.0740 281° West 413 475 40,000  Level FlightAware ADS-B
Wed 05:57:46 AM 35.2540 19.9980 283° West 413 475 40,000  Level FlightAware ADS-B
Wed 05:58:22 AM 35.2670 19.9290 283° West 413 475 40,000  Level FlightAware ADS-B
Wed 05:58:58 AM 35.2800 19.8590 283° West 413 475 40,000  Level FlightAware ADS-B
Wed 05:59:34 AM 35.3050 19.7450 285° West 416 479 40,000  Level FlightAware ADS-B
Wed 06:00:09 AM 35.3230 19.6560 284° West 423 487 40,000  Level FlightAware ADS-B
Wed 06:00:43 AM 35.3360 19.5870 283° West 423 487 40,000  Level FlightAware ADS-B
Wed 06:01:20 AM 35.3490 19.5130 282° West 423 487 40,000  Level FlightAware ADS-B
Wed 06:02:09 AM 35.3340 19.5930 103° East 423 487 40,000  Level FlightAware ADS-B
Wed 06:02:49 AM 35.3950 19.2840 284° West 420 483 40,000  Level FlightAware ADS-B
Wed 06:03:32 AM 35.4120 19.1910 283° West 419 482 40,000  Level FlightAware ADS-B
Wed 06:04:09 AM 35.4260 19.1190 283° West 419 482 40,000  Level FlightAware ADS-B
Wed 06:04:45 AM 35.4390 19.0480 283° West 419 482 40,000  Level FlightAware ADS-B
Wed 06:05:22 AM 35.4630 18.9290 284° West 415 478 40,000  Level FlightAware ADS-B
Wed 06:05:57 AM 35.4770 18.8510 282° West 410 472 40,000  Level FlightAware ADS-B
Wed 06:06:34 AM 35.4930 18.7670 283° West 409 471 40,000  Level FlightAware ADS-B
Wed 06:07:09 AM 35.5080 18.6860 283° West 409 471 40,000  Level FlightAware ADS-B
Wed 06:07:46 AM 35.5240 18.6020 283° West 410 472 40,000  Level FlightAware ADS-B
Wed 06:08:16 AM 35.5360 18.5350 282° West 412 474 40,000  Level FlightAware ADS-B
Wed 06:09:09 AM 35.5590 18.4120 283° West 419 482 40,000  Level FlightAware ADS-B
Wed 06:09:41 AM 35.5730 18.3370 283° West 419 482 40,000  Level FlightAware ADS-B
Wed 06:10:27 AM 35.5920 18.2340 283° West 417 480 40,000  Level FlightAware ADS-B
Wed 06:10:59 AM 35.6060 18.1580 283° West 417 480 40,000  Level FlightAware ADS-B
Wed 06:11:36 AM 35.6220 18.0720 283° West 418 481 40,000  Level FlightAware ADS-B
Wed 06:12:08 AM 35.6350 17.9980 282° West 417 480 40,000  Level FlightAware ADS-B
Wed 06:12:43 AM 35.6500 17.9170 283° West 417 480 40,000  Level FlightAware ADS-B
Wed 06:13:20 AM 35.6650 17.8330 282° West 419 482 40,000  Level FlightAware ADS-B
Wed 06:13:57 AM 35.6810 17.7440 283° West 419 482 40,000  Level FlightAware ADS-B
Wed 06:14:29 AM 35.6940 17.6700 282° West 420 483 40,000  Level FlightAware ADS-B
Wed 06:15:04 AM 35.7080 17.5890 282° West 420 483 40,000  Level FlightAware ADS-B
Wed 06:15:41 AM 35.7230 17.5040 282° West 420 483 40,000  Level FlightAware ADS-B
Wed 06:16:14 AM 35.7370 17.4280 283° West 419 482 40,000  Level FlightAware ADS-B
Wed 06:16:50 AM 35.7510 17.3430 281° West 418 481 40,000  Level FlightAware ADS-B
Wed 06:17:25 AM 35.7660 17.2610 283° West 418 481 40,000  Level FlightAware ADS-B
Wed 06:18:02 AM 35.7800 17.1760 282° West 420 483 40,000  Level FlightAware ADS-B
Wed 06:18:34 AM 35.7940 17.1010 283° West 421 484 40,000  Level FlightAware ADS-B
Wed 06:19:10 AM 35.8080 17.0190 282° West 421 484 40,000  Level FlightAware ADS-B
Wed 06:19:46 AM 35.8230 16.9320 282° West 422 486 40,000  Level FlightAware ADS-B
Wed 06:20:19 AM 35.8360 16.8550 282° West 423 487 40,000  Level FlightAware ADS-B
Wed 06:20:55 AM 35.8500 16.7710 282° West 422 486 40,000  Level FlightAware ADS-B
Wed 06:21:30 AM 35.8640 16.6880 282° West 421 484 40,000  Level FlightAware ADS-B
Wed 06:22:03 AM 35.8770 16.6110 282° West 421 484 40,000  Level FlightAware ADS-B
Wed 06:22:41 AM 35.8920 16.5220 282° West 421 484 40,000  Level FlightAware ADS-B
Wed 06:23:14 AM 35.9050 16.4430 282° West 421 484 40,000  Level FlightAware ADS-B
Wed 06:23:48 AM 35.9180 16.3640 282° West 421 484 40,000  Level FlightAware ADS-B
Wed 06:24:26 AM 35.9330 16.2740 282° West 420 483 40,000  Level FlightAware ADS-B
Wed 06:24:57 AM 35.9450 16.2000 281° West 419 482 40,000  Level FlightAware ADS-B
Wed 06:25:34 AM 35.9590 16.1140 281° West 417 480 40,000  Level FlightAware ADS-B
Wed 06:26:07 AM 35.9720 16.0400 282° West 416 479 40,000  Level FlightAware ADS-B
Wed 06:26:46 AM 35.9870 15.9460 281° West 414 476 40,000  Level FlightAware ADS-B
Wed 06:27:19 AM 35.9990 15.8710 281° West 415 478 40,000  Level FlightAware ADS-B
Wed 06:27:55 AM 36.0120 15.7880 281° West 416 479 40,000  Level FlightAware ADS-B
Wed 06:28:30 AM 36.0260 15.7060 282° West 416 479 40,000  Level FlightAware ADS-B
Wed 06:29:07 AM 36.0390 15.6200 281° West 416 479 40,000  Level FlightAware ADS-B
Wed 06:29:39 AM 36.0510 15.5440 281° West 416 479 40,000  Level FlightAware ADS-B
Wed 06:30:15 AM 36.0640 15.4620 281° West 417 480 40,000  Level FlightAware ADS-B
Wed 06:30:51 AM 36.0780 15.3760 281° West 417 480 40,000  Level FlightAware ADS-B
Wed 06:31:26 AM 36.0900 15.2960 281° West 417 480 40,000  Level FlightAware ADS-B
Wed 06:32:00 AM 36.1030 15.2150 281° West 417 480 40,000  Level FlightAware ADS-B
Wed 06:32:35 AM 36.1160 15.1340 281° West 416 479 40,000  Level FlightAware ADS-B
Wed 06:33:08 AM 36.1270 15.0590 280° West 415 478 40,000  Level FlightAware ADS-B
Wed 06:33:43 AM 36.1400 14.9770 281° West 415 478 40,000  Level FlightAware ADS-B
Wed 06:34:19 AM 36.1530 14.8930 281° West 415 478 40,000  Level FlightAware ADS-B
Wed 06:34:56 AM 36.1660 14.8060 281° West 415 478 40,000  Level FlightAware ADS-B
Wed 06:35:29 AM 36.1780 14.7300 281° West 415 478 40,000  Level FlightAware ADS-B
Wed 06:36:03 AM 36.1900 14.6490 280° West 415 478 40,000  Level FlightAware ADS-B
Wed 06:36:40 AM 36.2030 14.5650 281° West 416 479 40,000  Level FlightAware ADS-B
Wed 06:37:17 AM 36.2160 14.4770 280° West 417 480 40,000  Level FlightAware ADS-B
Wed 06:37:49 AM 36.2270 14.4000 280° West 417 480 40,000  Level FlightAware ADS-B
Wed 06:38:24 AM 36.2390 14.3200 281° West 419 482 40,000  Level FlightAware ADS-B
Wed 06:39:01 AM 36.2520 14.2320 280° West 418 481 40,000  Level FlightAware ADS-B
Wed 06:39:37 AM 36.2640 14.1470 280° West 418 481 40,000  Level FlightAware ADS-B
Wed 06:40:09 AM 36.2750 14.0750 281° West 418 481 40,000  Level FlightAware ADS-B
Wed 06:40:43 AM 36.2870 13.9920 280° West 418 481 40,000  Level FlightAware ADS-B
Wed 06:41:20 AM 36.2990 13.9060 280° West 418 481 40,000  Level FlightAware ADS-B
Wed 06:41:56 AM 36.3120 13.8190 281° West 417 480 40,000  Level FlightAware ADS-B
Wed 06:42:28 AM 36.3220 13.7440 279° West 417 480 40,000  Level FlightAware ADS-B
Wed 06:43:05 AM 36.3350 13.6570 281° West 418 481 40,000  Level FlightAware ADS-B
Wed 06:43:40 AM 36.3470 13.5750 280° West 419 482 40,000  Level FlightAware ADS-B
Wed 06:44:17 AM 36.3590 13.4870 280° West 419 482 40,000  Level FlightAware ADS-B
Wed 06:44:49 AM 36.3690 13.4130 280° West 418 481 40,000  Level FlightAware ADS-B
Wed 06:45:26 AM 36.3810 13.3260 280° West 417 480 40,000  Level FlightAware ADS-B
Wed 06:46:01 AM 36.3930 13.2430 280° West 415 478 40,000  Level FlightAware ADS-B
Wed 06:46:33 AM 36.4030 13.1670 279° West 414 476 40,000  Level FlightAware ADS-B
Wed 06:47:10 AM 36.4150 13.0800 280° West 415 478 40,000  Level FlightAware ADS-B
Wed 06:47:43 AM 36.4260 13.0040 280° West 415 478 40,000  Level FlightAware ADS-B
Wed 06:48:17 AM 36.4370 12.9230 280° West 417 480 40,000  Level FlightAware ADS-B
Wed 06:48:56 AM 36.4490 12.8330 279° West 418 481 40,000  Level FlightAware ADS-B
Wed 06:49:29 AM 36.4590 12.7530 279° West 419 482 40,000  Level FlightAware ADS-B
Wed 06:50:05 AM 36.4710 12.6680 280° West 419 482 40,000  Level FlightAware ADS-B
Wed 06:50:41 AM 36.4820 12.5830 279° West 419 482 40,000  Level FlightAware ADS-B
Wed 06:51:12 AM 36.4920 12.5100 280° West 419 482 40,000  Level FlightAware ADS-B
Wed 06:51:48 AM 36.5030 12.4250 279° West 419 482 40,000  Level FlightAware ADS-B
Wed 06:52:25 AM 36.5140 12.3400 279° West 418 481 40,000  Level FlightAware ADS-B
Wed 06:53:00 AM 36.5250 12.2530 279° West 418 481 40,000  Level FlightAware ADS-B
Wed 06:53:37 AM 36.5360 12.1670 279° West 418 481 40,000  Level FlightAware ADS-B
Wed 06:54:09 AM 36.5460 12.0910 279° West 418 481 40,000  Level FlightAware ADS-B
Wed 06:54:47 AM 36.5580 12.0010 279° West 418 481 40,000  Level FlightAware ADS-B
Wed 06:55:19 AM 36.5670 11.9240 278° West 418 481 40,000  Level FlightAware ADS-B
Wed 06:55:55 AM 36.5780 11.8380 279° West 418 481 40,000  Level FlightAware ADS-B
Wed 06:56:30 AM 36.5880 11.7570 279° West 417 480 40,000  Level FlightAware ADS-B
Wed 06:57:05 AM 36.5990 11.6740 279° West 415 478 40,000  Level FlightAware ADS-B
Wed 06:57:42 AM 36.6080 11.5880 277° West 414 476 40,000  Level FlightAware ADS-B
Wed 06:58:14 AM 36.6150 11.5100 276° West 415 478 40,000  Level FlightAware ADS-B
Wed 06:58:48 AM 36.6220 11.4290 276° West 416 479 40,000  Level FlightAware ADS-B
Wed 06:59:28 AM 36.6300 11.3340 276° West 417 480 40,000  Level FlightAware ADS-B
Wed 07:00:00 AM 36.6360 11.2600 276° West 419 482 40,000  Level FlightAware ADS-B
Wed 07:00:36 AM 36.6440 11.1740 277° West 419 482 40,000  Level FlightAware ADS-B
Wed 07:01:11 AM 36.6510 11.0920 276° West 420 483 40,000  Level FlightAware ADS-B
Wed 07:01:44 AM 36.6580 11.0080 276° West 421 484 40,000  Level FlightAware ADS-B
Wed 07:02:20 AM 36.6650 10.9230 276° West 422 486 40,000  Level FlightAware ADS-B
Wed 07:02:58 AM 36.6730 10.8320 276° West 423 487 40,000  Level FlightAware ADS-B
Wed 07:03:28 AM 36.6790 10.7580 276° West 424 488 40,000  Level FlightAware ADS-B
Wed 07:04:06 AM 36.6870 10.6660 276° West 425 489 40,000  Level FlightAware ADS-B
Wed 07:04:42 AM 36.6940 10.5780 276° West 425 489 40,000  Level FlightAware ADS-B
Wed 07:05:18 AM 36.7010 10.4910 276° West 426 490 40,000  Level FlightAware ADS-B
Wed 07:05:50 AM 36.7070 10.4120 275° West 427 491 40,000  Level FlightAware ADS-B
Wed 07:06:26 AM 36.7140 10.3250 276° West 427 491 40,000  Level FlightAware ADS-B
Wed 07:07:02 AM 36.7210 10.2350 276° West 426 490 40,000  Level FlightAware ADS-B
Wed 07:07:34 AM 36.7270 10.1580 276° West 426 490 40,000  Level FlightAware ADS-B
Wed 07:08:11 AM 36.7340 10.0700 276° West 425 489 40,000  Level FlightAware ADS-B
Wed 07:08:46 AM 36.7410 9.9840 276° West 425 489 40,000  Level FlightAware ADS-B
Wed 07:09:22 AM 36.7470 9.8970 275° West 425 489 40,000  Level FlightAware ADS-B
Wed 07:10:02 AM 36.7550 9.7990 276° West 425 489 40,000  Level FlightAware ADS-B
Wed 07:10:41 AM 36.7610 9.7060 275° West 426 490 40,000  Level FlightAware ADS-B
Wed 07:11:28 AM 36.7680 9.6060 275° West 426 490 40,000  Level FlightAware ADS-B
Wed 07:12:01 AM 36.7760 9.5080 276° West 428 493 40,000  Level FlightAware ADS-B
Wed 07:12:39 AM 36.7820 9.4210 275° West 428 493 40,000  Level FlightAware ADS-B
Wed 07:13:11 AM 36.7880 9.3360 275° West 428 493 40,000  Level FlightAware ADS-B
Wed 07:13:47 AM 36.7940 9.2490 275° West 429 494 40,000  Level FlightAware ADS-B
Wed 07:14:21 AM 36.8000 9.1640 275° West 428 493 40,000  Level FlightAware ADS-B
Wed 07:14:57 AM 36.8060 9.0810 275° West 428 493 40,000  Level FlightAware ADS-B
Wed 07:15:31 AM 36.8120 8.9960 275° West 427 491 40,000  Level FlightAware ADS-B
Wed 07:16:13 AM 36.8160 8.8920 273° West 427 491 40,000  Level FlightAware ADS-B
Wed 07:16:46 AM 36.8150 8.8110 269° West 427 491 40,000  Level FlightAware ADS-B
Wed 07:17:35 AM 36.8150 8.7060 270° West 428 493 40,000  Level FlightAware ADS-B
Wed 07:18:11 AM 36.8150 8.6310 270° West 428 493 40,000  Level FlightAware ADS-B
Wed 07:18:47 AM 36.8150 8.5550 270° West 428 493 40,000  Level FlightAware ADS-B
Wed 07:19:23 AM 36.8150 8.4790 270° West 428 493 40,000  Level FlightAware ADS-B
Wed 07:20:00 AM 36.8150 8.4010 270° West 428 493 40,000  Level FlightAware ADS-B
Wed 07:20:37 AM 36.8150 8.3240 270° West 428 493 40,000  Level FlightAware ADS-B
Wed 07:21:14 AM 36.8150 8.2460 270° West 428 493 40,000  Level FlightAware ADS-B
Wed 07:21:51 AM 36.8150 8.1680 270° West 428 493 40,000  Level FlightAware ADS-B
Wed 07:22:27 AM 36.8150 8.0920 270° West 428 493 40,000  Level FlightAware ADS-B
Wed 07:23:03 AM 36.8150 8.0170 270° West 428 493 40,000  Level FlightAware ADS-B
Wed 07:23:40 AM 36.8150 7.9390 270° West 428 493 40,000  Level FlightAware ADS-B
Wed 07:24:18 AM 36.7980 7.6960 265° West 429 494 40,000  Level FlightAware ADS-B
Wed 07:24:48 AM 36.7980 7.6200 270° West 429 494 40,000  Level FlightAware ADS-B
Wed 07:25:33 AM 36.8080 7.5200 277° West 430 495 40,000  Level FlightAware ADS-B
Wed 07:26:08 AM 36.8160 7.4220 276° West 430 495 40,000  Level FlightAware ADS-B
Wed 07:26:47 AM 36.8230 7.3400 276° West 430 495 40,000  Level FlightAware ADS-B
Wed 07:27:19 AM 36.8310 7.2480 276° West 428 493 40,000  Level FlightAware ADS-B
Wed 07:27:54 AM 36.8380 7.1730 277° West 429 494 40,000  Level FlightAware ADS-B
Wed 07:28:32 AM 36.8430 7.0940 275° West 429 494 40,000  Level FlightAware ADS-B
Wed 07:29:09 AM 36.8530 6.9880 277° West 663 763 40,000  Level FlightAware ADS-B
Wed 07:29:45 AM 36.8610 6.8950 276° West 431 496 40,000  Level FlightAware ADS-B
Wed 07:30:25 AM 36.8660 6.8110 274° West 431 496 40,000  Level FlightAware ADS-B
Wed 07:31:03 AM 36.8770 6.7020 277° West 432 497 40,000  Level FlightAware ADS-B
Wed 07:31:34 AM 36.8840 6.6200 276° West 432 497 40,000  Level FlightAware ADS-B
Wed 07:32:14 AM 36.8910 6.5250 275° West 432 497 40,000  Level FlightAware ADS-B
Wed 07:32:53 AM 36.8960 6.4420 274° West 432 497 40,000  Level FlightAware ADS-B
Wed 07:33:29 AM 36.9000 6.3660 274° West 432 497 40,000  Level FlightAware ADS-B
Wed 07:34:05 AM 36.9040 6.2900 274° West 432 497 40,000  Level FlightAware ADS-B
Wed 07:34:41 AM 36.9090 6.2140 275° West 432 497 40,000  Level FlightAware ADS-B
Wed 07:35:17 AM 36.9130 6.1370 274° West 432 497 40,000  Level FlightAware ADS-B
Wed 07:35:54 AM 36.9170 6.0590 274° West 432 497 40,000  Level FlightAware ADS-B
Wed 07:36:30 AM 36.9210 5.9820 274° West 432 497 40,000  Level FlightAware ADS-B
Wed 07:37:06 AM 36.9260 5.9060 275° West 432 497 40,000  Level FlightAware ADS-B
Wed 07:37:42 AM 36.9300 5.8300 274° West 432 497 40,000  Level FlightAware ADS-B
Wed 07:38:18 AM 36.9340 5.7540 274° West 432 497 40,000  Level FlightAware ADS-B
Wed 07:38:55 AM 36.9390 5.6750 275° West 432 497 40,000  Level FlightAware ADS-B
Wed 07:39:31 AM 36.9430 5.5990 274° West 432 497 40,000  Level FlightAware ADS-B
Wed 07:40:07 AM 36.9470 5.5220 274° West 432 497 40,000  Level FlightAware ADS-B
Wed 07:40:41 AM 36.9510 5.4500 274° West 432 497 40,000  Level FlightAware ADS-B
Wed 07:41:18 AM 36.9560 5.3720 275° West 432 497 40,000  Level FlightAware ADS-B
Wed 07:41:54 AM 36.9600 5.2950 274° West 432 497 40,000  Level FlightAware ADS-B
Wed 07:44:00 AM 36.9266 5.0202 261° West  Level Estimated
Wed 07:45:00 AM 36.9105 4.8895 261° West  Level Estimated
Wed 07:46:00 AM 36.8943 4.7588 261° West  Level Estimated
Wed 07:47:00 AM 36.8779 4.6282 261° West  Level Estimated
Wed 07:48:00 AM 36.8614 4.4976 261° West  Level Estimated
Wed 07:49:00 AM 36.8447 4.3671 261° West  Level Estimated
Wed 07:50:00 AM 36.8279 4.2366 261° West  Level Estimated
Wed 07:51:00 AM 36.8109 4.1062 261° West  Level Estimated
Wed 07:52:00 AM 36.7938 3.9758 261° West  Level Estimated
Wed 07:53:00 AM 36.7765 3.8456 261° West  Level Estimated
Wed 07:54:00 AM 36.7592 3.7153 261° West  Level Estimated
Wed 07:55:00 AM 36.7416 3.5851 260° West  Level Estimated
Wed 07:56:00 AM 36.7239 3.4550 260° West  Level Estimated
Wed 07:57:00 AM 36.7061 3.3250 260° West  Level Estimated
Wed 07:58:00 AM 36.6910 3.2154 260° West  Level Estimated
Wed 07:59:00 AM 36.6910 3.2154 338° Northwest  Level Estimated
Wed 08:00:00 AM 36.6910 3.2154 338° Northwest  Level Estimated
Wed 08:01:00 AM 36.6910 3.2154 338° Northwest  Level Estimated
Wed 08:02:00 AM 36.6910 3.2154 338° Northwest  Level Estimated
Wed 08:03:00 AM 36.6910 3.2154 338° Northwest  Level Estimated
Wed 08:04:00 AM 36.6910 3.2154 338° Northwest  Level Estimated
Wed 08:05:00 AM 36.6910 3.2154 338° Northwest  Level Estimated
Wed 08:06:00 AM 36.6910 3.2154 338° Northwest  Level Estimated
Wed 08:07:00 AM 36.6910 3.2154 338° Northwest  Level Estimated
Wed 08:08:00 AM 36.6910 3.2154 338° Northwest  Level Estimated
Wed 08:09:00 AM 36.6910 3.2154 338° Northwest  Level Estimated
Wed 08:10:00 AM 36.6910 3.2154 338° Northwest  Level Estimated
Wed 08:11:00 AM 36.6910 3.2154 338° Northwest  Level Estimated
Wed 08:12:00 AM 36.6910 3.2154 338° Northwest  Level Estimated
Wed 08:13:00 AM 36.6910 3.2154 338° Northwest  Level Estimated
Wed 08:14:00 AM 36.6910 3.2154 338° Northwest  Level Estimated
Wed 08:15:00 AM 36.6910 3.2154 338° Northwest  Level Estimated

Login

Don't have an account? Register now (free) for customized features, flight alerts, and more!